KRIL/RIL METAR and TAF weather

Enter ICAO airport designator
Station Type Date Time Source
KRIL METAR 2021/03/08 01:53 UTC NOAA

KRIL 080153Z AUTO VRB03KT 10SM CLR 10/M06 A3010 RMK AO2 SLP190 T01001056


Station Type Date Time Source
KRIL Decoded METAR 2021/03/08 01:53 UTC NOAA

RIFLE GARFIELD COUNTY RGNL, CO, United States (KRIL) 39-31N 107-44W 1678M
Mar 07, 2021 - 08:53 PM EST / 2021.03.08 0153 UTC
Wind: Variable at 3 MPH (3 KT):0
Visibility: 10 mile(s):0
Sky conditions: clear
Temperature: 50.0 F (10.0 C)
Dew Point: 21.9 F (-5.6 C)
Relative Humidity: 32%
Pressure (altimeter): 30.1 in. Hg (1019 hPa)
ob: KRIL 080153Z AUTO VRB03KT 10SM CLR 10/M06 A3010 RMK AO2 SLP190 T01001056
cycle: 2

Station Type Date Time Source
KRIL TAF 2021/03/07 18:30 UTC NOAA

TAF KRIL 071729Z 0718/0818 29004KT P6SM FEW250
FM072300 23006KT P6SM FEW250
FM080300 18003KT P6SM SCT250

Example: see airport list